Erwin, North Carolina
Current Conditions -  °F | °C
As of 4:15 AM on Monday 24 Nov 2014 (Local Time) from KHRJ Reporting Station
Clear Clear  
Wind Chill: 62°   Ceiling: Unl
Heat Index: 62°   Visibility: 10mi
Dew Point: 62°   Wind: 8mph
Humidity: 100%   Direction: 200°SSW
Pressure: 29.8"   Gusts: NA
Location:  35.33°N, 78.68°W
Report Text: KHRJ 240915Z AUTO 20007KT 10SM CLR 17/17 A2980 RMK AO2 T01690169
Loading
Personal Weather Stations






























Interactive Weather Map New forecast layout! Learn more

10-Day Weather Forecast

Advertisements
Track Severe Weather on mobile